| time (UTC) | temp C | wind direction | speed KPH | gust KPH | rain 1hr cm | rain 24hr cm | rain mn cm | humidity % | barometer mb |
| 20260505173314 | 27 | 90 | 11.3 | 16.1 | 0.00 | 0.00 | 0.00 | 73 | 1023.0 |
| 20260505172813 | 27 | 68 | 12.9 | 16.1 | 0.00 | 0.00 | 0.00 | 74 | 1022.0 |
| 20260505172314 | 26 | 180 | 3.2 | 4.8 | 0.00 | 0.00 | 0.00 | 75 | 1023.0 |
| 20260505171814 | 27 | 45 | 19.3 | 25.7 | 0.00 | 0.00 | 0.00 | 72 | 1023.0 |
| 20260505171313 | 27 | 113 | 8.0 | 11.3 | 0.00 | 0.00 | 0.00 | 75 | 1023.0 |
| 20260505170813 | 27 | 68 | 3.2 | 4.8 | 0.00 | 0.00 | 0.00 | 76 | 1023.0 |
| 20260505170315 | 27 | 45 | 9.7 | 11.3 | 0.00 | 0.00 | 0.00 | 75 | 1022.0 |
| 20260505165813 | 27 | 68 | 11.3 | 11.3 | 0.00 | 0.00 | 0.00 | 75 | 1023.0 |
| 20260505165314 | 27 | 23 | 6.4 | 8.0 | 0.00 | 0.00 | 0.00 | 76 | 1023.0 |
| 20260505164815 | 27 | 90 | 8.0 | 11.3 | 0.00 | 0.00 | 0.00 | 77 | 1023.0 |
| 20260505164313 | 26 | 68 | 12.9 | 16.1 | 0.00 | 0.00 | 0.00 | 76 | 1023.0 |
| 20260505163813 | 26 | 90 | 9.7 | 12.9 | 0.00 | 0.00 | 0.00 | 77 | 1023.0 |
| 20260505163314 | 27 | 45 | 14.5 | 19.3 | 0.00 | 0.00 | 0.00 | 76 | 1023.0 |
| 20260505162814 | 27 | 68 | 9.7 | 12.9 | 0.00 | 0.00 | 0.00 | 77 | 1023.0 |
| 20260505162318 | 26 | 90 | 11.3 | 16.1 | 0.00 | 0.00 | 0.00 | 79 | 1023.0 |
| 20260505161814 | 26 | 23 | 9.7 | 12.9 | 0.00 | 0.00 | 0.00 | 80 | 1023.0 |
| 20260505161313 | 26 | 45 | 8.0 | 11.3 | 0.00 | 0.00 | 0.00 | 79 | 1023.0 |
| 20260505160814 | 26 | 90 | 8.0 | 12.9 | 0.00 | 0.00 | 0.00 | 80 | 1023.0 |
| 20260505160316 | 26 | 23 | 9.7 | 12.9 | 0.00 | 0.00 | 0.00 | 79 | 1023.0 |
| 20260505153313 | 25 | 90 | 8.0 | 9.7 | 0.00 | 0.00 | 0.00 | 81 | 1023.0 |
| 20260505152813 | 25 | 23 | 8.0 | 11.3 | 0.00 | 0.00 | 0.00 | 79 | 1023.0 |
| 20260505152315 | 26 | 90 | 8.0 | 14.5 | 0.00 | 0.00 | 0.00 | 78 | 1023.0 |
| 20260505151813 | 26 | 45 | 14.5 | 16.1 | 0.00 | 0.00 | 0.00 | 77 | 1023.0 |
| 20260505151319 | 26 | 23 | 11.3 | 14.5 | 0.00 | 0.00 | 0.00 | 76 | 1023.0 |
| 20260505150814 | 26 | 68 | 12.9 | 16.1 | 0.00 | 0.00 | 0.00 | 78 | 1023.0 |
| 20260505150314 | 26 | 45 | 11.3 | 11.3 | 0.00 | 0.00 | 0.00 | 78 | 1023.0 |
| 20260505140314 | 25 | 23 | 16.1 | 20.9 | 0.00 | 0.00 | 0.00 | 79 | 1022.0 |
| 20260505124814 | 24 | 90 | 8.0 | 9.7 | 0.00 | 0.00 | 0.00 | 82 | 1022.0 |
| 20260505124313 | 24 | 68 | 12.9 | 16.1 | 0.00 | 0.00 | 0.00 | 82 | 1022.0 |
| 20260505123814 | 24 | 23 | 11.3 | 12.9 | 0.00 | 0.00 | 0.00 | 82 | 1022.0 |
| 20260505123314 | 25 | 23 | 6.4 | 8.0 | 0.00 | 0.00 | 0.00 | 82 | 1022.0 |
| 20260505122813 | 24 | 23 | 6.4 | 8.0 | 0.00 | 0.00 | 0.00 | 82 | 1022.0 |
| 20260505122313 | 25 | 45 | 4.8 | 6.4 | 0.00 | 0.00 | 0.00 | 81 | 1022.0 |
| 20260505121813 | 25 | 90 | 6.4 | 8.0 | 0.00 | 0.00 | 0.00 | 81 | 1022.0 |
| 20260505121313 | 25 | 68 | 6.4 | 8.0 | 0.00 | 0.00 | 0.00 | 81 | 1022.0 |
| 20260505120814 | 25 | 68 | 6.4 | 9.7 | 0.00 | 0.00 | 0.00 | 82 | 1022.0 |
| 20260505120314 | 24 | 45 | 6.4 | 8.0 | 0.00 | 0.00 | 0.00 | 82 | 1022.0 |
| 20260505115813 | 25 | 45 | 6.4 | 8.0 | 0.00 | 0.00 | 0.00 | 82 | 1022.0 |
| 20260505115313 | 24 | 68 | 11.3 | 14.5 | 0.00 | 0.00 | 0.00 | 82 | 1022.0 |
| 20260505114813 | 24 | 90 | 8.0 | 9.7 | 0.00 | 0.00 | 0.00 | 83 | 1022.0 |
| 20260505114313 | 24 | 90 | 9.7 | 11.3 | 0.00 | 0.00 | 0.00 | 84 | 1021.0 |
| 20260505113813 | 23 | 315 | 4.8 | 6.4 | 0.00 | 0.00 | 0.00 | 84 | 1021.0 |
| 20260505113314 | 23 | 45 | 8.0 | 11.3 | 0.00 | 0.00 | 0.00 | 84 | 1021.0 |
| 20260505112813 | 23 | 0 | 11.3 | 12.9 | 0.00 | 0.00 | 0.00 | 85 | 1021.0 |
| 20260505112313 | 23 | 23 | 9.7 | 14.5 | 0.00 | 0.00 | 0.00 | 85 | 1021.0 |
| 20260505111814 | 23 | 45 | 6.4 | 8.0 | 0.00 | 0.00 | 0.00 | 85 | 1022.0 |
| 20260505111317 | 23 | 113 | 4.8 | 4.8 | 0.00 | 0.00 | 0.00 | 85 | 1021.0 |
| 20260505110815 | 23 | 68 | 8.0 | 11.3 | 0.00 | 0.00 | 0.00 | 85 | 1021.0 |
| 20260505110313 | 23 | 23 | 11.3 | 16.1 | 0.00 | 0.00 | 0.00 | 85 | 1022.0 |
| 20260505101813 | 23 | 90 | 4.8 | 8.0 | 0.00 | 0.00 | 0.00 | 85 | 1021.0 |
| 20260505101314 | 23 | 45 | 8.0 | 9.7 | 0.00 | 0.00 | 0.00 | 85 | 1021.0 |
| 20260505100813 | 23 | 23 | 6.4 | 8.0 | 0.00 | 0.00 | 0.00 | 85 | 1021.0 |
| 20260505100317 | 23 | 45 | 8.0 | 11.3 | 0.00 | 0.00 | 0.00 | 85 | 1021.0 |
| 20260505095813 | 23 | 0 | 6.4 | 8.0 | 0.00 | 0.00 | 0.00 | 84 | 1021.0 |
| 20260505095314 | 23 | 68 | 3.2 | 4.8 | 0.00 | 0.00 | 0.00 | 84 | 1020.0 |
| 20260505094813 | 23 | 45 | 4.8 | 6.4 | 0.00 | 0.00 | 0.00 | 84 | 1021.0 |
| 20260505094314 | 23 | 113 | 4.8 | 8.0 | 0.00 | 0.00 | 0.00 | 84 | 1021.0 |
| 20260505093814 | 23 | 68 | 4.8 | 6.4 | 0.00 | 0.00 | 0.00 | 84 | 1020.0 |
| 20260505093314 | 23 | 68 | 3.2 | 3.2 | 0.00 | 0.00 | 0.00 | 84 | 1020.0 |
| 20260505092814 | 23 | 90 | 9.7 | 11.3 | 0.00 | 0.00 | 0.00 | 84 | 1020.0 |
| 20260505092314 | 23 | 45 | 4.8 | 8.0 | 0.00 | 0.00 | 0.00 | 85 | 1021.0 |
| 20260505091813 | 23 | 45 | 6.4 | 11.3 | 0.00 | 0.00 | 0.00 | 85 | 1020.0 |
| 20260505091313 | 23 | 68 | 1.6 | 3.2 | 0.00 | 0.00 | 0.00 | 84 | 1020.0 |
| 20260505090813 | 23 | 68 | 8.0 | 11.3 | 0.00 | 0.00 | 0.00 | 84 | 1020.0 |
| 20260505090313 | 23 | 23 | 8.0 | 11.3 | 0.00 | 0.00 | 0.00 | 84 | 1020.0 |
| 20260505085813 | 23 | 23 | 4.8 | 8.0 | 0.00 | 0.00 | 0.00 | 84 | 1020.0 |
| 20260505085314 | 23 | 45 | 11.3 | 16.1 | 0.00 | 0.00 | 0.00 | 84 | 1020.0 |
| 20260505084813 | 23 | 338 | 3.2 | 4.8 | 0.00 | 0.00 | 0.00 | 84 | 1020.0 |
| 20260505084313 | 23 | 68 | 4.8 | 6.4 | 0.00 | 0.00 | 0.00 | 84 | 1020.0 |
| 20260505083814 | 23 | 45 | 4.8 | 4.8 | 0.00 | 0.00 | 0.00 | 84 | 1020.0 |
| 20260505083314 | 23 | 23 | 11.3 | 14.5 | 0.00 | 0.00 | 0.00 | 84 | 1020.0 |
| 20260505082813 | 23 | 23 | 6.4 | 9.7 | 0.00 | 0.00 | 0.00 | 84 | 1020.0 |
| 20260505082313 | 23 | 45 | 6.4 | 8.0 | 0.00 | 0.00 | 0.00 | 84 | 1020.0 |
| 20260505081813 | 23 | 68 | 6.4 | 11.3 | 0.00 | 0.00 | 0.00 | 84 | 1020.0 |
| 20260505081313 | 23 | 68 | 4.8 | 8.0 | 0.00 | 0.00 | 0.00 | 84 | 1020.0 |
| 20260505080813 | 23 | 23 | 3.2 | 3.2 | 0.00 | 0.00 | 0.00 | 83 | 1020.0 |
| 20260505080314 | 23 | 45 | 4.8 | 8.0 | 0.00 | 0.00 | 0.00 | 83 | 1020.0 |
| 20260505075813 | 23 | 45 | 4.8 | 8.0 | 0.00 | 0.00 | 0.00 | 83 | 1020.0 |
| 20260505075313 | 23 | 23 | 4.8 | 8.0 | 0.00 | 0.00 | 0.00 | 83 | 1020.0 |
| 20260505074814 | 23 | 68 | 3.2 | 4.8 | 0.00 | 0.00 | 0.00 | 82 | 1020.0 |
| 20260505074314 | 23 | 68 | 4.8 | 8.0 | 0.00 | 0.00 | 0.00 | 82 | 1020.0 |
| 20260505073814 | 23 | 68 | 4.8 | 6.4 | 0.00 | 0.00 | 0.00 | 82 | 1020.0 |
| 20260505073313 | 23 | 45 | 6.4 | 8.0 | 0.00 | 0.00 | 0.00 | 82 | 1020.0 |
| 20260505072813 | 23 | 68 | 4.8 | 6.4 | 0.00 | 0.00 | 0.00 | 82 | 1021.0 |
| 20260505072313 | 23 | 68 | 4.8 | 6.4 | 0.00 | 0.00 | 0.00 | 82 | 1020.0 |
| 20260505071814 | 23 | 68 | 9.7 | 11.3 | 0.00 | 0.00 | 0.00 | 81 | 1020.0 |
| 20260505071313 | 23 | 45 | 6.4 | 8.0 | 0.00 | 0.00 | 0.00 | 81 | 1021.0 |
| 20260505070814 | 23 | 45 | 12.9 | 14.5 | 0.00 | 0.00 | 0.00 | 81 | 1020.0 |
| 20260505070313 | 23 | 68 | 4.8 | 4.8 | 0.00 | 0.00 | 0.00 | 81 | 1021.0 |
| 20260505065813 | 23 | 68 | 6.4 | 8.0 | 0.00 | 0.00 | 0.00 | 81 | 1021.0 |
| 20260505065314 | 23 | 90 | 11.3 | 12.9 | 0.00 | 0.00 | 0.00 | 81 | 1021.0 |
| 20260505064813 | 23 | 68 | 6.4 | 8.0 | 0.00 | 0.00 | 0.00 | 81 | 1021.0 |
| 20260505064313 | 23 | 45 | 4.8 | 6.4 | 0.00 | 0.00 | 0.00 | 81 | 1021.0 |
| 20260505063813 | 23 | 45 | 8.0 | 9.7 | 0.00 | 0.00 | 0.00 | 81 | 1021.0 |
| 20260505063313 | 22 | 0 | 8.0 | 11.3 | 0.00 | 0.00 | 0.00 | 82 | 1021.0 |
| 20260505062813 | 22 | 90 | 6.4 | 8.0 | 0.00 | 0.00 | 0.00 | 82 | 1021.0 |
| 20260505062313 | 22 | 45 | 6.4 | 8.0 | 0.00 | 0.00 | 0.00 | 82 | 1021.0 |
| 20260505061813 | 22 | 68 | 3.2 | 3.2 | 0.00 | 0.00 | 0.00 | 82 | 1021.0 |
| 20260505061313 | 23 | 113 | 9.7 | 12.9 | 0.00 | 0.00 | 0.00 | 82 | 1021.0 |
| 20260505060814 | 23 | 68 | 8.0 | 11.3 | 0.00 | 0.00 | 0.00 | 82 | 1021.0 |
| 20260505060313 | 23 | 68 | 4.8 | 8.0 | 0.00 | 0.00 | 0.00 | 82 | 1021.0 |
| 20260505055813 | 23 | 23 | 4.8 | 8.0 | 0.00 | 0.00 | 0.00 | 81 | 1021.0 |
| 20260505055313 | 23 | 68 | 4.8 | 8.0 | 0.00 | 0.00 | 0.00 | 81 | 1022.0 |
| 20260505054813 | 23 | 68 | 9.7 | 11.3 | 0.00 | 0.00 | 0.00 | 81 | 1021.0 |
| 20260505054313 | 23 | 113 | 4.8 | 6.4 | 0.00 | 0.00 | 0.00 | 81 | 1021.0 |
| 20260505053814 | 23 | 113 | 9.7 | 14.5 | 0.00 | 0.00 | 0.00 | 81 | 1021.0 |
| 20260505053314 | 23 | 158 | 4.8 | 6.4 | 0.00 | 0.00 | 0.00 | 81 | 1021.0 |
| 20260505052815 | 23 | 68 | 6.4 | 8.0 | 0.00 | 0.00 | 0.00 | 81 | 1022.0 |
| 20260505052313 | 23 | 23 | 4.8 | 6.4 | 0.00 | 0.00 | 0.00 | 81 | 1022.0 |
| 20260505051813 | 23 | 338 | 8.0 | 11.3 | 0.00 | 0.00 | 0.00 | 81 | 1022.0 |
| 20260505051313 | 23 | 135 | 3.2 | 3.2 | 0.00 | 0.00 | 0.00 | 81 | 1022.0 |
| 20260505050813 | 23 | 0 | 8.0 | 9.7 | 0.00 | 0.00 | 0.00 | 80 | 1022.0 |
| 20260505050313 | 23 | 68 | 6.4 | 8.0 | 0.00 | 0.00 | 0.00 | 80 | 1022.0 |
| 20260505041314 | 23 | 293 | 6.4 | 8.0 | 0.00 | 0.00 | 0.00 | 80 | 1022.0 |
| 20260505040814 | 23 | 90 | 6.4 | 8.0 | 0.00 | 0.00 | 0.00 | 80 | 1022.0 |
| 20260505040314 | 23 | 0 | 8.0 | 11.3 | 0.00 | 0.00 | 0.00 | 80 | 1022.0 |
| 20260505035813 | 23 | 90 | 4.8 | 9.7 | 0.00 | 0.00 | 0.79 | 80 | 1022.0 |
| 20260505035313 | 23 | 90 | 4.8 | 8.0 | 0.00 | 0.00 | 0.79 | 80 | 1022.0 |
| 20260505034814 | 23 | 68 | 3.2 | 3.2 | 0.00 | 0.00 | 0.79 | 80 | 1022.0 |
| 20260505034313 | 23 | 68 | 6.4 | 8.0 | 0.00 | 0.00 | 0.79 | 80 | 1022.0 |
| 20260505033813 | 23 | 0 | 8.0 | 9.7 | 0.00 | 0.00 | 0.79 | 81 | 1022.0 |
| 20260505033313 | 23 | 45 | 1.6 | 3.2 | 0.00 | 0.00 | 0.79 | 80 | 1022.0 |
| 20260505032813 | 23 | 90 | 11.3 | 12.9 | 0.00 | 0.00 | 0.79 | 80 | 1022.0 |
| 20260505032314 | 23 | 68 | 6.4 | 8.0 | 0.00 | 0.00 | 0.79 | 80 | 1022.0 |
| 20260505031813 | 23 | 45 | 8.0 | 9.7 | 0.00 | 0.00 | 0.79 | 80 | 1022.0 |
| 20260505031313 | 23 | 113 | 11.3 | 12.9 | 0.00 | 0.00 | 0.79 | 80 | 1022.0 |
| 20260505030813 | 23 | 68 | 6.4 | 8.0 | 0.00 | 0.00 | 0.79 | 80 | 1022.0 |
| 20260505030313 | 23 | 90 | 3.2 | 3.2 | 0.00 | 0.00 | 0.79 | 79 | 1022.0 |
| 20260505025814 | 23 | 68 | 6.4 | 8.0 | 0.00 | 0.00 | 0.79 | 79 | 1022.0 |
| 20260505025313 | 23 | 135 | 3.2 | 4.8 | 0.00 | 0.00 | 0.79 | 79 | 1022.0 |
| 20260505024813 | 23 | 0 | 4.8 | 8.0 | 0.00 | 0.00 | 0.79 | 79 | 1022.0 |
| 20260505024313 | 23 | 113 | 3.2 | 3.2 | 0.00 | 0.00 | 0.79 | 79 | 1022.0 |
| 20260505023814 | 23 | 90 | 6.4 | 9.7 | 0.00 | 0.00 | 0.79 | 79 | 1022.0 |
| 20260505023313 | 23 | 45 | 4.8 | 8.0 | 0.00 | 0.00 | 0.79 | 79 | 1022.0 |
| 20260505022813 | 23 | 23 | 6.4 | 8.0 | 0.00 | 0.00 | 0.79 | 79 | 1022.0 |
| 20260505022313 | 23 | 68 | 8.0 | 9.7 | 0.00 | 0.00 | 0.79 | 79 | 1022.0 |
| 20260505021813 | 23 | 45 | 4.8 | 8.0 | 0.00 | 0.00 | 0.79 | 79 | 1022.0 |
| 20260505021314 | 23 | 45 | 3.2 | 3.2 | 0.00 | 0.00 | 0.79 | 78 | 1022.0 |
| 20260505020814 | 23 | 45 | 8.0 | 9.7 | 0.00 | 0.00 | 0.79 | 78 | 1022.0 |
| 20260505020313 | 23 | 135 | 3.2 | 4.8 | 0.00 | 0.00 | 0.79 | 78 | 1022.0 |
| 20260505015813 | 23 | 45 | 4.8 | 6.4 | 0.00 | 0.00 | 0.79 | 79 | 1022.0 |
| 20260505015313 | 23 | 45 | 4.8 | 8.0 | 0.00 | 0.00 | 0.79 | 79 | 1022.0 |
| 20260505014813 | 23 | 45 | 3.2 | 3.2 | 0.00 | 0.00 | 0.79 | 79 | 1022.0 |
| 20260505014313 | 23 | 68 | 6.4 | 11.3 | 0.00 | 0.00 | 0.79 | 79 | 1022.0 |
| 20260505013813 | 23 | 68 | 3.2 | 4.8 | 0.00 | 0.00 | 0.79 | 78 | 1022.0 |
| 20260505013313 | 23 | 23 | 4.8 | 8.0 | 0.00 | 0.00 | 0.79 | 78 | 1022.0 |
| 20260505012814 | 23 | 113 | 4.8 | 6.4 | 0.00 | 0.00 | 0.79 | 79 | 1022.0 |
| 20260505012313 | 23 | 68 | 6.4 | 8.0 | 0.00 | 0.00 | 0.79 | 78 | 1022.0 |
| 20260505011813 | 23 | 68 | 6.4 | 8.0 | 0.00 | 0.00 | 0.79 | 77 | 1022.0 |
| 20260505011313 | 23 | 45 | 6.4 | 8.0 | 0.00 | 0.00 | 0.79 | 77 | 1022.0 |
| 20260505010813 | 23 | 90 | 4.8 | 6.4 | 0.00 | 0.00 | 0.79 | 77 | 1022.0 |
| 20260505010313 | 23 | 45 | 6.4 | 8.0 | 0.00 | 0.00 | 0.79 | 77 | 1022.0 |
| 20260505005813 | 23 | 68 | 8.0 | 11.3 | 0.00 | 0.00 | 0.79 | 77 | 1022.0 |
| 20260505005313 | 23 | 135 | 8.0 | 9.7 | 0.00 | 0.00 | 0.79 | 78 | 1022.0 |
| 20260505004813 | 23 | 68 | 4.8 | 8.0 | 0.00 | 0.00 | 0.79 | 77 | 1022.0 |
| 20260505004313 | 23 | 0 | 8.0 | 8.0 | 0.00 | 0.00 | 0.79 | 77 | 1021.0 |
| 20260505003813 | 23 | 90 | 4.8 | 8.0 | 0.00 | 0.00 | 0.79 | 77 | 1022.0 |
| 20260505003313 | 23 | 68 | 6.4 | 9.7 | 0.00 | 0.00 | 0.79 | 78 | 1022.0 |
| 20260505002813 | 23 | 68 | 4.8 | 8.0 | 0.00 | 0.00 | 0.79 | 78 | 1021.0 |
| 20260505002314 | 23 | 90 | 3.2 | 3.2 | 0.00 | 0.00 | 0.79 | 78 | 1021.0 |
| 20260505001813 | 23 | 0 | 4.8 | 6.4 | 0.00 | 0.00 | 0.79 | 77 | 1021.0 |
| 20260505001313 | 23 | 45 | 4.8 | 6.4 | 0.00 | 0.00 | 0.79 | 78 | 1021.0 |
| 20260505000813 | 23 | 90 | 8.0 | 11.3 | 0.00 | 0.00 | 0.79 | 78 | 1021.0 |
| 20260505000313 | 23 | 0 | 3.2 | 3.2 | 0.00 | 0.00 | 0.79 | 78 | 1021.0 |
| 20260504235813 | 23 | 23 | 3.2 | 6.4 | 0.00 | 0.00 | 0.79 | 78 | 1021.0 |
| 20260504235315 | 23 | 23 | 3.2 | 4.8 | 0.00 | 0.00 | 0.79 | 78 | 1021.0 |
| 20260504234813 | 23 | 45 | 4.8 | 6.4 | 0.00 | 0.00 | 0.79 | 78 | 1021.0 |
| 20260504234313 | 23 | 90 | 4.8 | 8.0 | 0.00 | 0.00 | 0.79 | 79 | 1021.0 |
| 20260504233813 | 23 | 68 | 4.8 | 8.0 | 0.00 | 0.00 | 0.79 | 78 | 1021.0 |
| 20260504233313 | 23 | 113 | 3.2 | 4.8 | 0.00 | 0.00 | 0.79 | 78 | 1021.0 |
| 20260504232813 | 23 | 68 | 4.8 | 6.4 | 0.00 | 0.00 | 0.79 | 78 | 1021.0 |
| 20260504232313 | 23 | 45 | 3.2 | 4.8 | 0.00 | 0.00 | 0.79 | 77 | 1021.0 |
| 20260504231814 | 23 | 23 | 4.8 | 6.4 | 0.00 | 0.00 | 0.79 | 77 | 1021.0 |
| 20260504231314 | 23 | 45 | 6.4 | 8.0 | 0.00 | 0.00 | 0.79 | 77 | 1021.0 |
| 20260504230813 | 23 | 90 | 4.8 | 6.4 | 0.00 | 0.00 | 0.79 | 77 | 1021.0 |
| 20260504230313 | 23 | 68 | 12.9 | 17.7 | 0.00 | 0.00 | 0.79 | 77 | 1021.0 |
| 20260504225813 | 23 | 68 | 8.0 | 9.7 | 0.00 | 0.00 | 0.79 | 78 | 1021.0 |
| 20260504225313 | 23 | 113 | 8.0 | 11.3 | 0.00 | 0.00 | 0.79 | 78 | 1021.0 |
| 20260504224814 | 23 | 45 | 6.4 | 9.7 | 0.00 | 0.00 | 0.79 | 78 | 1021.0 |
| 20260504224313 | 23 | 135 | 6.4 | 9.7 | 0.00 | 0.00 | 0.79 | 78 | 1021.0 |
| 20260504223813 | 24 | 68 | 9.7 | 11.3 | 0.00 | 0.00 | 0.79 | 78 | 1021.0 |
| 20260504223314 | 24 | 45 | 6.4 | 9.7 | 0.00 | 0.00 | 0.79 | 77 | 1021.0 |
| 20260504222813 | 24 | 113 | 4.8 | 8.0 | 0.00 | 0.00 | 0.79 | 77 | 1021.0 |
| 20260504222313 | 24 | 158 | 8.0 | 11.3 | 0.00 | 0.00 | 0.79 | 77 | 1021.0 |
| 20260504221813 | 24 | 68 | 4.8 | 8.0 | 0.00 | 0.00 | 0.79 | 77 | 1021.0 |
| 20260504221313 | 24 | 90 | 9.7 | 11.3 | 0.00 | 0.00 | 0.79 | 76 | 1021.0 |
| 20260504220815 | 24 | 68 | 11.3 | 14.5 | 0.00 | 0.00 | 0.79 | 76 | 1021.0 |
| 20260504220313 | 24 | 68 | 8.0 | 11.3 | 0.00 | 0.00 | 0.79 | 76 | 1021.0 |
| 20260504215813 | 24 | 68 | 6.4 | 8.0 | 0.00 | 0.00 | 0.79 | 76 | 1021.0 |
| 20260504215313 | 24 | 45 | 8.0 | 8.0 | 0.00 | 0.00 | 0.79 | 76 | 1021.0 |
| 20260504214814 | 24 | 68 | 4.8 | 8.0 | 0.00 | 0.00 | 0.79 | 77 | 1021.0 |
| 20260504214313 | 24 | 113 | 8.0 | 11.3 | 0.00 | 0.00 | 0.79 | 76 | 1021.0 |
| 20260504213816 | 24 | 90 | 6.4 | 8.0 | 0.00 | 0.00 | 0.79 | 76 | 1021.0 |
| 20260504213313 | 24 | 45 | 11.3 | 12.9 | 0.00 | 0.00 | 0.79 | 75 | 1021.0 |
| 20260504212813 | 25 | 113 | 9.7 | 16.1 | 0.00 | 0.00 | 0.79 | 75 | 1021.0 |
| 20260504212313 | 25 | 68 | 8.0 | 9.7 | 0.00 | 0.00 | 0.79 | 74 | 1021.0 |
| 20260504211813 | 25 | 45 | 11.3 | 17.7 | 0.00 | 0.00 | 0.79 | 74 | 1021.0 |
| 20260504211313 | 25 | 45 | 9.7 | 12.9 | 0.00 | 0.00 | 0.79 | 73 | 1021.0 |
| 20260504210813 | 25 | 158 | 6.4 | 8.0 | 0.00 | 0.00 | 0.79 | 72 | 1021.0 |
| 20260504210313 | 25 | 68 | 8.0 | 11.3 | 0.00 | 0.00 | 0.79 | 73 | 1021.0 |
| 20260504205814 | 25 | 68 | 4.8 | 8.0 | 0.00 | 0.00 | 0.79 | 73 | 1021.0 |
| 20260504205314 | 25 | 0 | 8.0 | 9.7 | 0.00 | 0.00 | 0.79 | 73 | 1021.0 |
| 20260504204814 | 25 | 338 | 3.2 | 3.2 | 0.00 | 0.00 | 0.79 | 75 | 1021.0 |
| 20260504204313 | 25 | 90 | 4.8 | 4.8 | 0.00 | 0.00 | 0.79 | 76 | 1021.0 |
| 20260504203813 | 25 | 0 | 6.4 | 8.0 | 0.00 | 0.00 | 0.79 | 76 | 1021.0 |
| 20260504203314 | 25 | 90 | 8.0 | 11.3 | 0.00 | 0.00 | 0.79 | 74 | 1022.0 |
| 20260504202813 | 25 | 90 | 9.7 | 11.3 | 0.00 | 0.00 | 0.79 | 75 | 1021.0 |
| 20260504202314 | 25 | 68 | 9.7 | 16.1 | 0.00 | 0.00 | 0.79 | 76 | 1022.0 |
| 20260504201816 | 25 | 90 | 8.0 | 8.0 | 0.00 | 0.00 | 0.79 | 76 | 1022.0 |
| 20260504201313 | 25 | 68 | 11.3 | 16.1 | 0.00 | 0.00 | 0.79 | 75 | 1021.0 |
| 20260504200813 | 25 | 23 | 12.9 | 16.1 | 0.00 | 0.00 | 0.79 | 74 | 1022.0 |
| 20260504200313 | 25 | 68 | 8.0 | 14.5 | 0.00 | 0.00 | 0.79 | 75 | 1021.0 |
| 20260504195814 | 25 | 90 | 8.0 | 11.3 | 0.00 | 0.00 | 0.79 | 76 | 1021.0 |
| 20260504195313 | 25 | 113 | 8.0 | 9.7 | 0.00 | 0.00 | 0.79 | 77 | 1022.0 |
| 20260504194814 | 25 | 45 | 11.3 | 12.9 | 0.00 | 0.00 | 0.79 | 77 | 1022.0 |
| 20260504194315 | 25 | 23 | 8.0 | 12.9 | 0.18 | 0.00 | 0.79 | 78 | 1022.0 |
| 20260504193813 | 24 | 90 | 14.5 | 20.9 | 0.00 | 0.00 | 0.76 | 79 | 1022.0 |
| 20260504193313 | 23 | 113 | 8.0 | 11.3 | 0.00 | 0.00 | 0.76 | 81 | 1022.0 |
| 20260504192813 | 23 | 135 | 6.4 | 9.7 | 0.00 | 0.00 | 0.76 | 82 | 1022.0 |
| 20260504192313 | 23 | 68 | 8.0 | 11.3 | 0.00 | 0.00 | 0.76 | 84 | 1022.0 |
| 20260504191814 | 23 | 68 | 8.0 | 9.7 | 0.00 | 0.00 | 0.76 | 84 | 1022.0 |
| 20260504191314 | 23 | 90 | 9.7 | 14.5 | 0.00 | 0.00 | 0.76 | 86 | 1022.0 |
| 20260504190814 | 22 | 45 | 11.3 | 12.9 | 0.00 | 0.00 | 0.76 | 87 | 1022.0 |
| 20260504190313 | 22 | 23 | 8.0 | 8.0 | 0.00 | 0.00 | 0.76 | 87 | 1022.0 |
| 20260504185814 | 22 | 68 | 6.4 | 9.7 | 0.00 | 0.00 | 0.76 | 87 | 1022.0 |
| 20260504185313 | 22 | 113 | 11.3 | 14.5 | 0.00 | 0.00 | 0.76 | 87 | 1022.0 |
| 20260504184814 | 22 | 45 | 14.5 | 17.7 | 0.18 | 0.00 | 0.76 | 88 | 1022.0 |
| 20260504184314 | 22 | 90 | 4.8 | 8.0 | 0.18 | 0.00 | 0.76 | 87 | 1022.0 |
| 20260504183814 | 22 | 90 | 6.4 | 8.0 | 0.18 | 0.00 | 0.71 | 85 | 1022.0 |
| 20260504183314 | 23 | 68 | 9.7 | 11.3 | 0.00 | 0.00 | 0.69 | 83 | 1022.0 |
| 20260504182813 | 23 | 23 | 9.7 | 14.5 | 0.00 | 0.00 | 0.69 | 83 | 1022.0 |
| 20260504182315 | 23 | 113 | 6.4 | 8.0 | 0.00 | 0.00 | 0.69 | 82 | 1022.0 |
| 20260504181814 | 23 | 23 | 9.7 | 11.3 | 0.00 | 0.00 | 0.69 | 82 | 1022.0 |
| 20260504181316 | 23 | 45 | 16.1 | 19.3 | 0.00 | 0.00 | 0.69 | 80 | 1023.0 |
| 20260504180813 | 24 | 68 | 8.0 | 9.7 | 0.00 | 0.00 | 0.69 | 81 | 1022.0 |
| 20260504180315 | 23 | 113 | 11.3 | 14.5 | 0.00 | 0.00 | 0.69 | 81 | 1022.0 |
| 20260504175813 | 23 | 113 | 3.2 | 3.2 | 0.00 | 0.00 | 0.69 | 83 | 1023.0 |
| 20260504175314 | 24 | 90 | 8.0 | 11.3 | 0.00 | 0.00 | 0.69 | 82 | 1022.0 |
| 20260504174813 | 24 | 68 | 12.9 | 17.7 | 0.00 | 0.00 | 0.69 | 81 | 1023.0 |
| 20260504174313 | 24 | 23 | 11.3 | 16.1 | 0.00 | 0.00 | 0.69 | 78 | 1022.0 |
| 20260504173813 | 25 | 68 | 11.3 | 11.3 | 0.00 | 0.00 | 0.69 | 78 | 1023.0 |